sensor_id;sensor_type;location;lat;lon;timestamp;temperature;humidity
9209;DHT22;4639;48.862;9.188;2023-02-07T00:00:46;1.20;99.90
9209;DHT22;4639;48.862;9.188;2023-02-07T00:03:11;1.20;99.90
9209;DHT22;4639;48.862;9.188;2023-02-07T00:05:37;1.20;99.90
9209;DHT22;4639;48.862;9.188;2023-02-07T00:08:04;1.00;99.90
9209;DHT22;4639;48.862;9.188;2023-02-07T00:10:30;1.00;99.90
9209;DHT22;4639;48.862;9.188;2023-02-07T00:12:56;0.90;99.90
9209;DHT22;4639;48.862;9.188;2023-02-07T00:15:21;0.90;99.90
9209;DHT22;4639;48.862;9.188;2023-02-07T00:17:47;0.90;99.90
9209;DHT22;4639;48.862;9.188;2023-02-07T00:20:12;0.80;99.90
9209;DHT22;4639;48.862;9.188;2023-02-07T00:22:38;0.80;99.90
9209;DHT22;4639;48.862;9.188;2023-02-07T00:25:04;0.80;99.90
9209;DHT22;4639;48.862;9.188;2023-02-07T00:27:30;0.80;99.90
9209;DHT22;4639;48.862;9.188;2023-02-07T00:29:55;0.70;99.90
9209;DHT22;4639;48.862;9.188;2023-02-07T00:32:21;0.60;99.90
9209;DHT22;4639;48.862;9.188;2023-02-07T00:34:47;0.60;99.90
9209;DHT22;4639;48.862;9.188;2023-02-07T00:37:15;0.50;99.90
9209;DHT22;4639;48.862;9.188;2023-02-07T00:39:40;0.50;99.90
9209;DHT22;4639;48.862;9.188;2023-02-07T00:42:06;0.40;99.90
9209;DHT22;4639;48.862;9.188;2023-02-07T00:44:32;0.40;99.90
9209;DHT22;4639;48.862;9.188;2023-02-07T00:46:58;0.40;99.90
9209;DHT22;4639;48.862;9.188;2023-02-07T00:49:23;0.40;99.90
9209;DHT22;4639;48.862;9.188;2023-02-07T00:51:49;0.40;99.90
9209;DHT22;4639;48.862;9.188;2023-02-07T00:54:14;0.30;99.90
9209;DHT22;4639;48.862;9.188;2023-02-07T00:56:43;0.30;99.90
9209;DHT22;4639;48.862;9.188;2023-02-07T00:59:08;0.30;99.90
9209;DHT22;4639;48.862;9.188;2023-02-07T01:01:35;0.30;99.90
9209;DHT22;4639;48.862;9.188;2023-02-07T01:04:01;0.20;99.90
9209;DHT22;4639;48.862;9.188;2023-02-07T01:06:27;0.20;99.90
9209;DHT22;4639;48.862;9.188;2023-02-07T01:08:57;0.20;99.90
9209;DHT22;4639;48.862;9.188;2023-02-07T01:11:23;0.10;99.90
9209;DHT22;4639;48.862;9.188;2023-02-07T01:13:48;0.20;99.90
9209;DHT22;4639;48.862;9.188;2023-02-07T01:16:23;0.20;99.90
9209;DHT22;4639;48.862;9.188;2023-02-07T01:18:50;0.30;99.90
9209;DHT22;4639;48.862;9.188;2023-02-07T01:21:21;0.30;99.90
9209;DHT22;4639;48.862;9.188;2023-02-07T01:23:47;0.30;99.90
9209;DHT22;4639;48.862;9.188;2023-02-07T01:26:12;0.20;99.90
9209;DHT22;4639;48.862;9.188;2023-02-07T01:28:38;0.10;99.90
9209;DHT22;4639;48.862;9.188;2023-02-07T01:31:11;0.10;99.90
9209;DHT22;4639;48.862;9.188;2023-02-07T01:33:37;0.00;99.90
9209;DHT22;4639;48.862;9.188;2023-02-07T01:36:11;0.00;99.90
9209;DHT22;4639;48.862;9.188;2023-02-07T01:38:37;0.00;99.90
9209;DHT22;4639;48.862;9.188;2023-02-07T01:41:07;0.00;99.90
9209;DHT22;4639;48.862;9.188;2023-02-07T01:43:33;-0.20;99.90
9209;DHT22;4639;48.862;9.188;2023-02-07T01:45:58;-0.20;99.90
9209;DHT22;4639;48.862;9.188;2023-02-07T01:48:29;-0.10;99.90
9209;DHT22;4639;48.862;9.188;2023-02-07T01:50:58;-0.20;99.90
9209;DHT22;4639;48.862;9.188;2023-02-07T01:53:26;-0.20;99.90
9209;DHT22;4639;48.862;9.188;2023-02-07T01:55:56;-0.20;99.90
9209;DHT22;4639;48.862;9.188;2023-02-07T01:58:23;-0.10;99.90
9209;DHT22;4639;48.862;9.188;2023-02-07T02:00:50;-0.20;99.90
9209;DHT22;4639;48.862;9.188;2023-02-07T02:03:15;-0.10;99.90
9209;DHT22;4639;48.862;9.188;2023-02-07T02:05:42;-0.20;99.90
9209;DHT22;4639;48.862;9.188;2023-02-07T02:08:08;-0.20;99.90
9209;DHT22;4639;48.862;9.188;2023-02-07T02:13:34;-0.30;99.90
9209;DHT22;4639;48.862;9.188;2023-02-07T02:16:09;-0.40;99.90
9209;DHT22;4639;48.862;9.188;2023-02-07T02:24:23;-0.40;99.90
9209;DHT22;4639;48.862;9.188;2023-02-07T02:29:51;-0.50;99.90
9209;DHT22;4639;48.862;9.188;2023-02-07T02:32:51;-0.50;99.90
9209;DHT22;4639;48.862;9.188;2023-02-07T02:35:45;-0.40;99.90
9209;DHT22;4639;48.862;9.188;2023-02-07T02:38:35;-0.40;99.90
9209;DHT22;4639;48.862;9.188;2023-02-07T02:41:17;-0.50;99.90
9209;DHT22;4639;48.862;9.188;2023-02-07T02:43:49;-0.40;99.90
9209;DHT22;4639;48.862;9.188;2023-02-07T02:46:21;-0.50;99.90
9209;DHT22;4639;48.862;9.188;2023-02-07T02:48:48;-0.30;99.90
9209;DHT22;4639;48.862;9.188;2023-02-07T02:51:20;-0.60;99.90
9209;DHT22;4639;48.862;9.188;2023-02-07T02:53:53;-0.70;99.90
9209;DHT22;4639;48.862;9.188;2023-02-07T03:10:46;-0.70;99.90
9209;DHT22;4639;48.862;9.188;2023-02-07T03:13:52;-0.60;99.90
9209;DHT22;4639;48.862;9.188;2023-02-07T03:20:18;-0.70;99.90
9209;DHT22;4639;48.862;9.188;2023-02-07T03:22:25;-0.80;99.90
9209;DHT22;4639;48.862;9.188;2023-02-07T03:24:55;-0.80;99.90
9209;DHT22;4639;48.862;9.188;2023-02-07T03:27:23;-0.90;99.90
9209;DHT22;4639;48.862;9.188;2023-02-07T03:29:53;-0.80;99.90
9209;DHT22;4639;48.862;9.188;2023-02-07T03:32:28;-0.80;99.90
9209;DHT22;4639;48.862;9.188;2023-02-07T03:38:14;-0.70;99.90
9209;DHT22;4639;48.862;9.188;2023-02-07T03:40:43;-0.70;99.90
9209;DHT22;4639;48.862;9.188;2023-02-07T03:45:42;-0.70;99.90
9209;DHT22;4639;48.862;9.188;2023-02-07T03:48:08;-0.70;99.90
9209;DHT22;4639;48.862;9.188;2023-02-07T03:50:34;-0.80;99.90
9209;DHT22;4639;48.862;9.188;2023-02-07T03:53:00;-0.80;99.90
9209;DHT22;4639;48.862;9.188;2023-02-07T03:55:25;-0.80;99.90
9209;DHT22;4639;48.862;9.188;2023-02-07T03:57:52;-0.80;99.90
9209;DHT22;4639;48.862;9.188;2023-02-07T04:00:17;-0.80;99.90
9209;DHT22;4639;48.862;9.188;2023-02-07T04:02:43;-0.80;99.90
9209;DHT22;4639;48.862;9.188;2023-02-07T04:05:09;-0.80;99.90
9209;DHT22;4639;48.862;9.188;2023-02-07T04:07:37;-0.70;99.90
9209;DHT22;4639;48.862;9.188;2023-02-07T04:10:04;-0.70;99.90
9209;DHT22;4639;48.862;9.188;2023-02-07T04:12:30;-0.80;99.90
9209;DHT22;4639;48.862;9.188;2023-02-07T04:14:59;-0.80;99.90
9209;DHT22;4639;48.862;9.188;2023-02-07T04:17:25;-0.90;99.90
9209;DHT22;4639;48.862;9.188;2023-02-07T04:19:51;-1.00;99.90
9209;DHT22;4639;48.862;9.188;2023-02-07T04:22:17;-0.80;99.90
9209;DHT22;4639;48.862;9.188;2023-02-07T04:24:42;-1.00;99.90
9209;DHT22;4639;48.862;9.188;2023-02-07T04:27:08;-1.00;99.90
9209;DHT22;4639;48.862;9.188;2023-02-07T04:29:33;-0.90;99.90
9209;DHT22;4639;48.862;9.188;2023-02-07T04:32:02;-0.90;99.90
9209;DHT22;4639;48.862;9.188;2023-02-07T04:34:28;-1.00;99.90
9209;DHT22;4639;48.862;9.188;2023-02-07T04:36:53;-1.00;99.90
9209;DHT22;4639;48.862;9.188;2023-02-07T04:39:19;-1.00;99.90
9209;DHT22;4639;48.862;9.188;2023-02-07T04:41:45;-1.10;99.90
9209;DHT22;4639;48.862;9.188;2023-02-07T04:44:10;-1.10;99.90
9209;DHT22;4639;48.862;9.188;2023-02-07T04:46:36;-1.10;99.90
9209;DHT22;4639;48.862;9.188;2023-02-07T04:49:02;-1.10;99.90
9209;DHT22;4639;48.862;9.188;2023-02-07T04:51:28;-1.10;99.90
9209;DHT22;4639;48.862;9.188;2023-02-07T04:53:59;-1.10;99.90
9209;DHT22;4639;48.862;9.188;2023-02-07T04:56:24;-1.10;99.90
9209;DHT22;4639;48.862;9.188;2023-02-07T04:58:50;-1.00;99.90
9209;DHT22;4639;48.862;9.188;2023-02-07T05:01:16;-1.00;99.90
9209;DHT22;4639;48.862;9.188;2023-02-07T05:03:42;-1.00;99.90
9209;DHT22;4639;48.862;9.188;2023-02-07T05:06:08;-1.00;99.90
9209;DHT22;4639;48.862;9.188;2023-02-07T05:08:35;-1.00;99.90
9209;DHT22;4639;48.862;9.188;2023-02-07T05:11:03;-1.10;99.90
9209;DHT22;4639;48.862;9.188;2023-02-07T05:13:29;-1.10;99.90
9209;DHT22;4639;48.862;9.188;2023-02-07T05:15:54;-1.10;99.90
9209;DHT22;4639;48.862;9.188;2023-02-07T05:18:20;-1.10;99.90
9209;DHT22;4639;48.862;9.188;2023-02-07T05:20:46;-1.10;99.90
9209;DHT22;4639;48.862;9.188;2023-02-07T05:23:12;-1.20;99.90
9209;DHT22;4639;48.862;9.188;2023-02-07T05:25:39;-1.20;99.90
9209;DHT22;4639;48.862;9.188;2023-02-07T05:28:05;-1.20;99.90
9209;DHT22;4639;48.862;9.188;2023-02-07T05:30:30;-1.30;99.90
9209;DHT22;4639;48.862;9.188;2023-02-07T05:32:56;-1.30;99.90
9209;DHT22;4639;48.862;9.188;2023-02-07T05:37:56;-1.30;99.90
9209;DHT22;4639;48.862;9.188;2023-02-07T05:40:22;-1.30;99.90
9209;DHT22;4639;48.862;9.188;2023-02-07T05:42:47;-1.30;99.90
9209;DHT22;4639;48.862;9.188;2023-02-07T05:45:13;-1.30;99.90
9209;DHT22;4639;48.862;9.188;2023-02-07T05:47:41;-1.30;99.90
9209;DHT22;4639;48.862;9.188;2023-02-07T05:50:09;-1.30;99.90
9209;DHT22;4639;48.862;9.188;2023-02-07T05:52:34;-1.40;99.90
9209;DHT22;4639;48.862;9.188;2023-02-07T05:55:00;-1.40;99.90
9209;DHT22;4639;48.862;9.188;2023-02-07T05:57:25;-1.40;99.90
9209;DHT22;4639;48.862;9.188;2023-02-07T05:59:51;-1.50;99.90
9209;DHT22;4639;48.862;9.188;2023-02-07T06:02:17;-1.50;99.90
9209;DHT22;4639;48.862;9.188;2023-02-07T06:04:45;-1.50;99.90
9209;DHT22;4639;48.862;9.188;2023-02-07T06:07:10;-1.50;99.90
9209;DHT22;4639;48.862;9.188;2023-02-07T06:09:36;-1.50;99.90
9209;DHT22;4639;48.862;9.188;2023-02-07T06:12:02;-1.60;99.90
9209;DHT22;4639;48.862;9.188;2023-02-07T06:14:27;-1.60;99.90
9209;DHT22;4639;48.862;9.188;2023-02-07T06:16:53;-1.60;99.90
9209;DHT22;4639;48.862;9.188;2023-02-07T06:19:18;-1.60;99.90
9209;DHT22;4639;48.862;9.188;2023-02-07T06:21:44;-1.70;99.90
9209;DHT22;4639;48.862;9.188;2023-02-07T06:24:09;-1.70;99.90
9209;DHT22;4639;48.862;9.188;2023-02-07T06:26:35;-1.70;99.90
9209;DHT22;4639;48.862;9.188;2023-02-07T06:29:01;-1.70;99.90
9209;DHT22;4639;48.862;9.188;2023-02-07T06:31:27;-1.80;99.90
9209;DHT22;4639;48.862;9.188;2023-02-07T06:33:52;-1.80;99.90
9209;DHT22;4639;48.862;9.188;2023-02-07T06:36:18;-1.80;99.90
9209;DHT22;4639;48.862;9.188;2023-02-07T06:38:43;-1.90;99.90
9209;DHT22;4639;48.862;9.188;2023-02-07T06:41:09;-1.90;99.90
9209;DHT22;4639;48.862;9.188;2023-02-07T06:43:38;-1.90;99.90
9209;DHT22;4639;48.862;9.188;2023-02-07T06:46:04;-1.90;99.90
9209;DHT22;4639;48.862;9.188;2023-02-07T06:48:30;-1.90;99.90
9209;DHT22;4639;48.862;9.188;2023-02-07T06:50:56;-1.90;99.90
9209;DHT22;4639;48.862;9.188;2023-02-07T06:53:21;-1.90;99.90
9209;DHT22;4639;48.862;9.188;2023-02-07T06:55:47;-1.90;99.90
9209;DHT22;4639;48.862;9.188;2023-02-07T06:58:24;-1.80;99.90
9209;DHT22;4639;48.862;9.188;2023-02-07T07:00:49;-1.80;99.90
9209;DHT22;4639;48.862;9.188;2023-02-07T07:03:16;-1.80;99.90
9209;DHT22;4639;48.862;9.188;2023-02-07T07:05:42;-1.80;99.90
9209;DHT22;4639;48.862;9.188;2023-02-07T07:08:11;-1.80;99.90
9209;DHT22;4639;48.862;9.188;2023-02-07T07:10:40;-1.70;99.90
9209;DHT22;4639;48.862;9.188;2023-02-07T07:13:05;-1.70;99.90
9209;DHT22;4639;48.862;9.188;2023-02-07T07:15:31;-1.80;99.90
9209;DHT22;4639;48.862;9.188;2023-02-07T07:17:56;-1.80;99.90
9209;DHT22;4639;48.862;9.188;2023-02-07T07:20:22;-1.80;99.90
9209;DHT22;4639;48.862;9.188;2023-02-07T07:22:48;-1.90;99.90
9209;DHT22;4639;48.862;9.188;2023-02-07T07:25:17;-1.70;99.90
9209;DHT22;4639;48.862;9.188;2023-02-07T07:27:42;-1.40;99.90
9209;DHT22;4639;48.862;9.188;2023-02-07T07:30:08;-1.20;99.90
9209;DHT22;4639;48.862;9.188;2023-02-07T07:32:34;-0.80;99.90
9209;DHT22;4639;48.862;9.188;2023-02-07T07:35:00;-0.50;99.90
9209;DHT22;4639;48.862;9.188;2023-02-07T07:37:26;-0.30;99.90
9209;DHT22;4639;48.862;9.188;2023-02-07T07:39:52;0.00;99.90
9209;DHT22;4639;48.862;9.188;2023-02-07T07:42:17;0.20;99.90
9209;DHT22;4639;48.862;9.188;2023-02-07T07:44:43;0.30;99.90
9209;DHT22;4639;48.862;9.188;2023-02-07T07:47:08;0.50;99.90
9209;DHT22;4639;48.862;9.188;2023-02-07T07:49:34;0.60;99.90
9209;DHT22;4639;48.862;9.188;2023-02-07T07:51:59;0.70;99.90
9209;DHT22;4639;48.862;9.188;2023-02-07T07:54:25;0.80;99.90
9209;DHT22;4639;48.862;9.188;2023-02-07T07:56:50;1.00;99.90
9209;DHT22;4639;48.862;9.188;2023-02-07T07:59:16;1.20;99.90
9209;DHT22;4639;48.862;9.188;2023-02-07T08:01:44;1.40;99.90
9209;DHT22;4639;48.862;9.188;2023-02-07T08:04:13;1.60;99.90
9209;DHT22;4639;48.862;9.188;2023-02-07T08:06:38;1.80;99.90
9209;DHT22;4639;48.862;9.188;2023-02-07T08:09:04;2.10;99.90
9209;DHT22;4639;48.862;9.188;2023-02-07T08:11:30;2.20;99.90
9209;DHT22;4639;48.862;9.188;2023-02-07T08:13:55;2.40;99.90
9209;DHT22;4639;48.862;9.188;2023-02-07T08:16:21;2.60;99.90
9209;DHT22;4639;48.862;9.188;2023-02-07T08:18:46;2.80;99.90
9209;DHT22;4639;48.862;9.188;2023-02-07T08:21:12;2.90;99.90
9209;DHT22;4639;48.862;9.188;2023-02-07T08:23:37;3.00;99.90
9209;DHT22;4639;48.862;9.188;2023-02-07T08:26:03;3.20;99.90
9209;DHT22;4639;48.862;9.188;2023-02-07T08:28:30;3.10;99.90
9209;DHT22;4639;48.862;9.188;2023-02-07T08:31:00;2.90;99.90
9209;DHT22;4639;48.862;9.188;2023-02-07T08:33:26;2.60;99.90
9209;DHT22;4639;48.862;9.188;2023-02-07T08:35:52;2.40;99.90
9209;DHT22;4639;48.862;9.188;2023-02-07T08:38:18;2.40;99.90
9209;DHT22;4639;48.862;9.188;2023-02-07T08:40:43;2.50;99.90
9209;DHT22;4639;48.862;9.188;2023-02-07T08:43:09;2.60;99.90
9209;DHT22;4639;48.862;9.188;2023-02-07T08:45:38;2.70;99.90
9209;DHT22;4639;48.862;9.188;2023-02-07T08:48:04;2.70;99.90
9209;DHT22;4639;48.862;9.188;2023-02-07T08:50:29;2.90;99.90
9209;DHT22;4639;48.862;9.188;2023-02-07T08:52:55;3.10;99.90
9209;DHT22;4639;48.862;9.188;2023-02-07T08:55:21;3.40;99.90
9209;DHT22;4639;48.862;9.188;2023-02-07T08:57:46;3.70;99.90
9209;DHT22;4639;48.862;9.188;2023-02-07T09:00:12;3.90;99.90
9209;DHT22;4639;48.862;9.188;2023-02-07T09:02:38;4.20;99.90
9209;DHT22;4639;48.862;9.188;2023-02-07T09:05:04;4.50;99.90
9209;DHT22;4639;48.862;9.188;2023-02-07T09:07:35;4.90;99.90
9209;DHT22;4639;48.862;9.188;2023-02-07T09:10:05;5.20;99.90
9209;DHT22;4639;48.862;9.188;2023-02-07T09:12:34;5.50;99.90
9209;DHT22;4639;48.862;9.188;2023-02-07T09:15:00;5.60;99.90
9209;DHT22;4639;48.862;9.188;2023-02-07T09:17:26;5.40;99.90
9209;DHT22;4639;48.862;9.188;2023-02-07T09:19:51;5.50;99.90
9209;DHT22;4639;48.862;9.188;2023-02-07T09:22:17;5.60;99.90
9209;DHT22;4639;48.862;9.188;2023-02-07T09:24:43;5.60;99.90
9209;DHT22;4639;48.862;9.188;2023-02-07T09:27:08;5.60;99.90
9209;DHT22;4639;48.862;9.188;2023-02-07T09:29:34;5.60;99.90
9209;DHT22;4639;48.862;9.188;2023-02-07T09:32:00;5.80;99.90
9209;DHT22;4639;48.862;9.188;2023-02-07T09:34:25;5.90;99.90
9209;DHT22;4639;48.862;9.188;2023-02-07T09:36:52;5.90;99.90
9209;DHT22;4639;48.862;9.188;2023-02-07T09:39:20;5.90;99.90
9209;DHT22;4639;48.862;9.188;2023-02-07T09:47:20;6.10;99.90
9209;DHT22;4639;48.862;9.188;2023-02-07T09:52:32;5.20;99.90
9209;DHT22;4639;48.862;9.188;2023-02-07T09:55:07;5.00;99.90
9209;DHT22;4639;48.862;9.188;2023-02-07T09:57:45;5.20;99.90
9209;DHT22;4639;48.862;9.188;2023-02-07T10:00:23;5.30;99.90
9209;DHT22;4639;48.862;9.188;2023-02-07T10:03:01;5.80;99.90
9209;DHT22;4639;48.862;9.188;2023-02-07T10:05:33;6.10;99.90
9209;DHT22;4639;48.862;9.188;2023-02-07T10:08:03;6.50;99.90
9209;DHT22;4639;48.862;9.188;2023-02-07T10:22:32;7.80;99.90
9209;DHT22;4639;48.862;9.188;2023-02-07T10:30:39;8.30;99.90
9209;DHT22;4639;48.862;9.188;2023-02-07T10:36:15;8.40;99.90
9209;DHT22;4639;48.862;9.188;2023-02-07T10:41:34;8.70;99.90
9209;DHT22;4639;48.862;9.188;2023-02-07T10:44:11;8.80;99.90
9209;DHT22;4639;48.862;9.188;2023-02-07T10:46:37;9.10;99.90
9209;DHT22;4639;48.862;9.188;2023-02-07T10:49:22;9.20;99.90
9209;DHT22;4639;48.862;9.188;2023-02-07T10:51:49;9.20;99.90
9209;DHT22;4639;48.862;9.188;2023-02-07T10:54:19;9.20;99.90
9209;DHT22;4639;48.862;9.188;2023-02-07T10:56:57;9.00;99.90
9209;DHT22;4639;48.862;9.188;2023-02-07T10:59:45;9.20;99.90
9209;DHT22;4639;48.862;9.188;2023-02-07T11:05:01;9.10;99.90
9209;DHT22;4639;48.862;9.188;2023-02-07T11:07:27;9.10;99.90
9209;DHT22;4639;48.862;9.188;2023-02-07T11:12:55;9.00;99.90
9209;DHT22;4639;48.862;9.188;2023-02-07T11:16:05;9.20;99.90
9209;DHT22;4639;48.862;9.188;2023-02-07T11:26:34;9.20;99.90
9209;DHT22;4639;48.862;9.188;2023-02-07T11:29:12;9.40;99.90
9209;DHT22;4639;48.862;9.188;2023-02-07T11:31:40;9.20;99.90
9209;DHT22;4639;48.862;9.188;2023-02-07T11:37:18;8.50;99.90
9209;DHT22;4639;48.862;9.188;2023-02-07T11:39:45;8.80;99.90
9209;DHT22;4639;48.862;9.188;2023-02-07T11:42:14;9.00;99.90
9209;DHT22;4639;48.862;9.188;2023-02-07T11:44:49;9.00;99.90
9209;DHT22;4639;48.862;9.188;2023-02-07T11:47:31;8.90;99.90
9209;DHT22;4639;48.862;9.188;2023-02-07T11:50:04;8.70;99.90
9209;DHT22;4639;48.862;9.188;2023-02-07T11:52:32;8.80;99.90
9209;DHT22;4639;48.862;9.188;2023-02-07T11:55:01;8.90;99.90
9209;DHT22;4639;48.862;9.188;2023-02-07T11:57:31;9.00;99.90
9209;DHT22;4639;48.862;9.188;2023-02-07T12:00:24;8.80;99.90
9209;DHT22;4639;48.862;9.188;2023-02-07T12:03:05;8.40;99.90
9209;DHT22;4639;48.862;9.188;2023-02-07T12:05:42;8.00;99.90
9209;DHT22;4639;48.862;9.188;2023-02-07T12:08:17;7.90;99.90
9209;DHT22;4639;48.862;9.188;2023-02-07T12:10:50;8.10;99.90
9209;DHT22;4639;48.862;9.188;2023-02-07T12:13:20;8.30;99.90
9209;DHT22;4639;48.862;9.188;2023-02-07T12:16:01;8.70;99.90
9209;DHT22;4639;48.862;9.188;2023-02-07T12:18:40;9.00;99.90
9209;DHT22;4639;48.862;9.188;2023-02-07T12:21:33;9.10;99.90
9209;DHT22;4639;48.862;9.188;2023-02-07T12:24:10;9.30;99.90
9209;DHT22;4639;48.862;9.188;2023-02-07T12:29:47;9.40;99.90
9209;DHT22;4639;48.862;9.188;2023-02-07T12:32:34;9.50;99.90
9209;DHT22;4639;48.862;9.188;2023-02-07T12:40:50;8.60;99.90
9209;DHT22;4639;48.862;9.188;2023-02-07T12:43:30;8.90;99.90
9209;DHT22;4639;48.862;9.188;2023-02-07T12:51:16;9.70;99.90
9209;DHT22;4639;48.862;9.188;2023-02-07T12:53:56;9.50;99.90
9209;DHT22;4639;48.862;9.188;2023-02-07T13:07:32;10.00;99.90
9209;DHT22;4639;48.862;9.188;2023-02-07T13:10:22;10.10;99.90
9209;DHT22;4639;48.862;9.188;2023-02-07T13:16:14;9.90;99.90
9209;DHT22;4639;48.862;9.188;2023-02-07T13:19:06;9.90;99.90
9209;DHT22;4639;48.862;9.188;2023-02-07T13:24:23;9.50;99.90
9209;DHT22;4639;48.862;9.188;2023-02-07T13:26:55;9.20;99.90
9209;DHT22;4639;48.862;9.188;2023-02-07T13:29:22;8.70;99.90
9209;DHT22;4639;48.862;9.188;2023-02-07T13:31:54;8.20;99.90
9209;DHT22;4639;48.862;9.188;2023-02-07T13:34:27;8.20;99.90
9209;DHT22;4639;48.862;9.188;2023-02-07T13:36:55;8.20;99.90
9209;DHT22;4639;48.862;9.188;2023-02-07T13:39:47;8.40;99.90
9209;DHT22;4639;48.862;9.188;2023-02-07T13:45:14;9.00;99.90
9209;DHT22;4639;48.862;9.188;2023-02-07T13:53:54;9.10;99.90
9209;DHT22;4639;48.862;9.188;2023-02-07T13:56:33;8.90;99.90
9209;DHT22;4639;48.862;9.188;2023-02-07T14:02:16;9.00;99.90
9209;DHT22;4639;48.862;9.188;2023-02-07T14:04:52;9.20;99.90
9209;DHT22;4639;48.862;9.188;2023-02-07T14:07:30;9.20;99.90
9209;DHT22;4639;48.862;9.188;2023-02-07T14:09:58;9.40;99.90
9209;DHT22;4639;48.862;9.188;2023-02-07T14:12:27;9.30;99.90
9209;DHT22;4639;48.862;9.188;2023-02-07T14:14:55;9.30;99.90
9209;DHT22;4639;48.862;9.188;2023-02-07T14:23:03;9.20;99.90
9209;DHT22;4639;48.862;9.188;2023-02-07T14:25:39;9.40;99.90
9209;DHT22;4639;48.862;9.188;2023-02-07T14:30:56;10.00;99.90
9209;DHT22;4639;48.862;9.188;2023-02-07T14:33:34;10.10;99.90
9209;DHT22;4639;48.862;9.188;2023-02-07T14:38:43;10.30;99.90
9209;DHT22;4639;48.862;9.188;2023-02-07T14:41:36;10.40;99.90
9209;DHT22;4639;48.862;9.188;2023-02-07T14:44:05;10.30;99.90
9209;DHT22;4639;48.862;9.188;2023-02-07T14:49:14;10.40;99.90
9209;DHT22;4639;48.862;9.188;2023-02-07T14:51:53;10.40;99.90
9209;DHT22;4639;48.862;9.188;2023-02-07T14:54:41;10.30;99.90
9209;DHT22;4639;48.862;9.188;2023-02-07T14:57:57;10.20;99.90
9209;DHT22;4639;48.862;9.188;2023-02-07T15:00:27;9.90;99.90
9209;DHT22;4639;48.862;9.188;2023-02-07T15:02:57;9.70;99.90
9209;DHT22;4639;48.862;9.188;2023-02-07T15:05:51;9.50;99.90
9209;DHT22;4639;48.862;9.188;2023-02-07T15:08:19;9.60;99.90
9209;DHT22;4639;48.862;9.188;2023-02-07T15:13:31;9.70;99.90
9209;DHT22;4639;48.862;9.188;2023-02-07T15:16:18;9.70;99.90
9209;DHT22;4639;48.862;9.188;2023-02-07T15:18:48;9.60;99.90
9209;DHT22;4639;48.862;9.188;2023-02-07T15:21:20;9.50;99.90
9209;DHT22;4639;48.862;9.188;2023-02-07T15:23:57;9.20;99.90
9209;DHT22;4639;48.862;9.188;2023-02-07T15:26:25;8.80;99.90
9209;DHT22;4639;48.862;9.188;2023-02-07T15:29:02;8.60;99.90
9209;DHT22;4639;48.862;9.188;2023-02-07T15:31:28;8.30;99.90
9209;DHT22;4639;48.862;9.188;2023-02-07T15:34:13;8.10;99.90
9209;DHT22;4639;48.862;9.188;2023-02-07T15:36:44;7.90;99.90
9209;DHT22;4639;48.862;9.188;2023-02-07T15:39:19;7.70;99.90
9209;DHT22;4639;48.862;9.188;2023-02-07T15:41:47;7.70;99.90
9209;DHT22;4639;48.862;9.188;2023-02-07T15:44:25;7.10;99.90
9209;DHT22;4639;48.862;9.188;2023-02-07T15:46:52;7.00;99.90
9209;DHT22;4639;48.862;9.188;2023-02-07T15:49:39;6.90;99.90
9209;DHT22;4639;48.862;9.188;2023-02-07T15:54:56;6.50;99.90
9209;DHT22;4639;48.862;9.188;2023-02-07T15:57:28;6.40;99.90
9209;DHT22;4639;48.862;9.188;2023-02-07T16:00:16;6.20;99.90
9209;DHT22;4639;48.862;9.188;2023-02-07T16:02:43;6.10;99.90
9209;DHT22;4639;48.862;9.188;2023-02-07T16:05:30;5.90;99.90
9209;DHT22;4639;48.862;9.188;2023-02-07T16:07:58;5.80;99.90
9209;DHT22;4639;48.862;9.188;2023-02-07T16:10:33;5.70;99.90
9209;DHT22;4639;48.862;9.188;2023-02-07T16:13:20;5.50;99.90
9209;DHT22;4639;48.862;9.188;2023-02-07T16:15:56;5.50;99.90
9209;DHT22;4639;48.862;9.188;2023-02-07T16:18:39;5.40;99.90
9209;DHT22;4639;48.862;9.188;2023-02-07T16:21:16;5.30;99.90
9209;DHT22;4639;48.862;9.188;2023-02-07T16:23:45;5.30;99.90
9209;DHT22;4639;48.862;9.188;2023-02-07T16:26:11;5.20;99.90
9209;DHT22;4639;48.862;9.188;2023-02-07T16:28:43;5.20;99.90
9209;DHT22;4639;48.862;9.188;2023-02-07T16:31:09;5.10;99.90
9209;DHT22;4639;48.862;9.188;2023-02-07T16:33:35;5.00;99.90
9209;DHT22;4639;48.862;9.188;2023-02-07T16:36:01;4.90;99.90
9209;DHT22;4639;48.862;9.188;2023-02-07T16:38:26;4.80;99.90
9209;DHT22;4639;48.862;9.188;2023-02-07T16:40:52;4.70;99.90
9209;DHT22;4639;48.862;9.188;2023-02-07T16:43:32;4.80;99.90
9209;DHT22;4639;48.862;9.188;2023-02-07T16:46:02;4.70;99.90
9209;DHT22;4639;48.862;9.188;2023-02-07T16:48:28;4.60;99.90
9209;DHT22;4639;48.862;9.188;2023-02-07T16:50:54;4.50;99.90
9209;DHT22;4639;48.862;9.188;2023-02-07T16:53:22;4.50;99.90
9209;DHT22;4639;48.862;9.188;2023-02-07T16:55:47;4.40;99.90
9209;DHT22;4639;48.862;9.188;2023-02-07T16:58:22;4.30;99.90
9209;DHT22;4639;48.862;9.188;2023-02-07T17:00:48;4.20;99.90
9209;DHT22;4639;48.862;9.188;2023-02-07T17:03:14;4.20;99.90
9209;DHT22;4639;48.862;9.188;2023-02-07T17:05:40;4.50;99.90
9209;DHT22;4639;48.862;9.188;2023-02-07T17:08:05;4.10;99.90
9209;DHT22;4639;48.862;9.188;2023-02-07T17:10:33;4.20;99.90
9209;DHT22;4639;48.862;9.188;2023-02-07T17:12:59;4.20;99.90
9209;DHT22;4639;48.862;9.188;2023-02-07T17:15:25;4.00;99.90
9209;DHT22;4639;48.862;9.188;2023-02-07T17:17:50;3.90;99.90
9209;DHT22;4639;48.862;9.188;2023-02-07T17:20:27;3.70;99.90
9209;DHT22;4639;48.862;9.188;2023-02-07T17:22:53;3.60;99.90
9209;DHT22;4639;48.862;9.188;2023-02-07T17:25:21;3.50;99.90
9209;DHT22;4639;48.862;9.188;2023-02-07T17:27:50;3.40;99.90
9209;DHT22;4639;48.862;9.188;2023-02-07T17:30:21;3.20;99.90
9209;DHT22;4639;48.862;9.188;2023-02-07T17:32:47;3.10;99.90
9209;DHT22;4639;48.862;9.188;2023-02-07T17:35:13;3.10;99.90
9209;DHT22;4639;48.862;9.188;2023-02-07T17:37:39;3.10;99.90
9209;DHT22;4639;48.862;9.188;2023-02-07T17:40:26;3.10;99.90
9209;DHT22;4639;48.862;9.188;2023-02-07T17:42:52;3.00;99.90
9209;DHT22;4639;48.862;9.188;2023-02-07T17:45:18;2.90;99.90
9209;DHT22;4639;48.862;9.188;2023-02-07T17:47:44;2.80;99.90
9209;DHT22;4639;48.862;9.188;2023-02-07T17:50:28;2.80;99.90
9209;DHT22;4639;48.862;9.188;2023-02-07T17:52:57;2.70;99.90
9209;DHT22;4639;48.862;9.188;2023-02-07T17:55:23;2.60;99.90
9209;DHT22;4639;48.862;9.188;2023-02-07T17:57:49;2.60;99.90
9209;DHT22;4639;48.862;9.188;2023-02-07T18:00:18;2.60;99.90
9209;DHT22;4639;48.862;9.188;2023-02-07T18:02:45;2.50;99.90
9209;DHT22;4639;48.862;9.188;2023-02-07T18:05:11;2.50;99.90
9209;DHT22;4639;48.862;9.188;2023-02-07T18:07:37;2.60;99.90
9209;DHT22;4639;48.862;9.188;2023-02-07T18:10:03;2.50;99.90
9209;DHT22;4639;48.862;9.188;2023-02-07T18:12:31;2.50;99.90
9209;DHT22;4639;48.862;9.188;2023-02-07T18:14:56;2.50;99.90
9209;DHT22;4639;48.862;9.188;2023-02-07T18:17:22;2.50;99.90
9209;DHT22;4639;48.862;9.188;2023-02-07T18:19:50;2.50;99.90
9209;DHT22;4639;48.862;9.188;2023-02-07T18:22:16;2.50;99.90
9209;DHT22;4639;48.862;9.188;2023-02-07T18:24:42;2.50;99.90
9209;DHT22;4639;48.862;9.188;2023-02-07T18:27:07;2.50;99.90
9209;DHT22;4639;48.862;9.188;2023-02-07T18:29:33;2.50;99.90
9209;DHT22;4639;48.862;9.188;2023-02-07T18:31:58;2.40;99.90
9209;DHT22;4639;48.862;9.188;2023-02-07T18:34:24;2.40;99.90
9209;DHT22;4639;48.862;9.188;2023-02-07T18:36:49;2.40;99.90
9209;DHT22;4639;48.862;9.188;2023-02-07T18:39:17;2.40;99.90
9209;DHT22;4639;48.862;9.188;2023-02-07T18:41:44;2.40;99.90
9209;DHT22;4639;48.862;9.188;2023-02-07T18:44:09;2.40;99.90
9209;DHT22;4639;48.862;9.188;2023-02-07T18:46:35;2.30;99.90
9209;DHT22;4639;48.862;9.188;2023-02-07T18:49:01;2.30;99.90
9209;DHT22;4639;48.862;9.188;2023-02-07T18:51:27;2.20;99.90
9209;DHT22;4639;48.862;9.188;2023-02-07T18:53:52;2.30;99.90
9209;DHT22;4639;48.862;9.188;2023-02-07T18:56:22;2.30;99.90